createdAt,value
2019-05-29T00:00:05.784Z,98.59
2019-05-29T00:01:08.944Z,98.79
2019-05-29T00:02:05.991Z,99.10
2019-05-29T00:03:06.131Z,98.38
2019-05-29T00:04:04.605Z,98.69
2019-05-29T00:05:04.594Z,97.45
2019-05-29T00:06:04.593Z,97.77
2019-05-29T00:07:04.584Z,97.56
2019-05-29T00:08:04.573Z,98.38
2019-05-29T00:09:04.578Z,98.43
2019-05-29T00:10:04.551Z,98.43
2019-05-29T00:11:04.538Z,97.09
2019-05-29T00:12:04.566Z,97.91
2019-05-29T00:13:04.506Z,98.02
2019-05-29T00:14:18.726Z,97.71
2019-05-29T00:15:06.189Z,97.91
2019-05-29T00:16:04.486Z,97.71
2019-05-29T00:17:04.472Z,97.61
2019-05-29T00:18:04.450Z,97.81
2019-05-29T00:19:04.440Z,97.96
2019-05-29T00:20:04.444Z,98.79
2019-05-29T00:21:04.451Z,99.35
2019-05-29T00:22:04.417Z,98.33
2019-05-29T00:23:04.412Z,98.84
2019-05-29T00:24:04.386Z,98.53
2019-05-29T00:25:04.387Z,98.43
2019-05-29T00:26:04.362Z,99.35
2019-05-29T00:27:05.391Z,98.74
2019-05-29T00:28:04.347Z,98.43
2019-05-29T00:29:05.551Z,98.63
2019-05-29T00:30:04.326Z,99.15
2019-05-29T00:31:05.686Z,98.90
2019-05-29T00:32:04.324Z,98.28
2019-05-29T00:33:04.298Z,98.18
2019-05-29T00:34:04.282Z,97.97
2019-05-29T00:35:04.281Z,97.45
2019-05-29T00:36:04.270Z,97.97
2019-05-29T00:37:04.272Z,97.66
2019-05-29T00:38:04.250Z,97.45
2019-05-29T00:39:04.274Z,97.41
2019-05-29T00:40:04.225Z,97.00
2019-05-29T00:41:04.216Z,97.25
2019-05-29T00:42:04.210Z,97.41
2019-05-29T00:43:04.198Z,97.31
2019-05-29T00:44:04.189Z,97.20
2019-05-29T00:45:04.176Z,96.48
2019-05-29T00:46:04.154Z,96.59
2019-05-29T00:47:04.173Z,96.14
2019-05-29T00:48:04.156Z,96.69
2019-05-29T00:49:04.115Z,95.62
2019-05-29T00:50:04.102Z,95.42
2019-05-29T00:51:04.099Z,95.01
2019-05-29T00:52:04.135Z,95.10
2019-05-29T00:53:04.077Z,94.14
2019-05-29T00:54:04.082Z,94.34
2019-05-29T00:55:04.077Z,94.34
2019-05-29T00:56:04.050Z,94.04
2019-05-29T00:57:04.061Z,94.24
2019-05-29T00:58:04.033Z,94.45
2019-05-29T00:59:04.007Z,94.55
2019-05-29T01:00:03.999Z,94.39
2019-05-29T01:01:03.985Z,94.55
2019-05-29T01:02:03.998Z,94.76
2019-05-29T01:03:03.964Z,93.83
2019-05-29T01:04:03.953Z,94.24
2019-05-29T01:05:03.953Z,94.24
2019-05-29T01:06:03.927Z,92.91
2019-05-29T01:07:03.990Z,93.21
2019-05-29T01:08:03.911Z,93.52
2019-05-29T01:09:03.949Z,93.07
2019-05-29T01:10:03.895Z,93.21
2019-05-29T01:11:03.881Z,93.27
2019-05-29T01:12:03.870Z,93.73
2019-05-29T01:13:03.877Z,93.07
2019-05-29T01:14:03.861Z,93.52
2019-05-29T01:15:03.831Z,93.32
2019-05-29T01:16:03.822Z,93.32
2019-05-29T01:17:03.820Z,93.32
2019-05-29T01:18:03.822Z,93.52
2019-05-29T01:19:03.791Z,93.21
2019-05-29T01:20:03.791Z,92.91
2019-05-29T01:21:03.771Z,93.52
2019-05-29T01:22:03.847Z,93.52
2019-05-29T01:23:03.760Z,93.63
2019-05-29T01:24:03.737Z,93.21
2019-05-29T01:25:03.746Z,93.63
2019-05-29T01:26:03.780Z,93.42
2019-05-29T01:27:03.780Z,93.42
2019-05-29T01:28:03.706Z,94.24
2019-05-29T01:29:03.683Z,93.42
2019-05-29T01:30:03.686Z,93.46
2019-05-29T01:31:03.677Z,93.67
2019-05-29T01:32:03.684Z,93.77
2019-05-29T01:33:03.654Z,93.21
2019-05-29T01:34:03.632Z,93.67
2019-05-29T01:35:03.642Z,93.67
2019-05-29T01:36:03.600Z,93.21
2019-05-29T01:37:03.591Z,93.26
2019-05-29T01:38:03.590Z,94.29
2019-05-29T01:39:03.586Z,93.67
2019-05-29T01:40:18.693Z,93.46
2019-05-29T01:41:04.546Z,93.57
2019-05-29T01:42:03.534Z,93.26
2019-05-29T01:43:03.540Z,93.36
2019-05-29T01:44:03.551Z,93.46
2019-05-29T01:45:08.285Z,93.46
2019-05-29T01:46:04.490Z,93.26
2019-05-29T01:47:03.480Z,93.36
2019-05-29T01:48:03.470Z,94.29
2019-05-29T01:49:03.476Z,93.98
2019-05-29T01:50:03.471Z,93.77
2019-05-29T01:51:03.459Z,93.98
2019-05-29T01:52:03.432Z,93.77
2019-05-29T01:53:03.419Z,94.29
2019-05-29T01:54:03.436Z,93.98
2019-05-29T01:55:03.399Z,93.67
2019-05-29T01:56:03.399Z,93.87
2019-05-29T01:57:03.395Z,93.87
2019-05-29T01:58:03.402Z,94.08
2019-05-29T01:59:03.364Z,93.77
2019-05-29T02:00:03.380Z,94.18
2019-05-29T02:01:03.334Z,94.08
2019-05-29T02:02:03.322Z,94.49
2019-05-29T02:03:03.334Z,94.59
2019-05-29T02:04:03.362Z,94.49
2019-05-29T02:05:03.291Z,94.18
2019-05-29T02:06:03.275Z,94.39
2019-05-29T02:07:03.264Z,94.18
2019-05-29T02:08:03.266Z,94.70
2019-05-29T02:09:03.283Z,94.18
2019-05-29T02:10:03.246Z,94.39
2019-05-29T02:11:03.240Z,94.29
2019-05-29T02:12:03.213Z,94.39
2019-05-29T02:13:03.257Z,94.80
2019-05-29T02:14:03.189Z,94.49
2019-05-29T02:15:03.194Z,94.90
2019-05-29T02:16:03.167Z,95.72
2019-05-29T02:17:03.163Z,95.62
2019-05-29T02:18:03.159Z,95.52
2019-05-29T02:19:03.192Z,95.62
2019-05-29T02:20:03.151Z,95.42
2019-05-29T02:21:03.138Z,95.93
2019-05-29T02:22:03.115Z,95.31
2019-05-29T02:23:03.111Z,95.21
2019-05-29T02:24:03.086Z,95.72
2019-05-29T02:25:03.091Z,95.52
2019-05-29T02:26:03.087Z,95.21
2019-05-29T02:27:03.081Z,95.89
2019-05-29T02:28:03.040Z,95.57
2019-05-29T02:29:03.042Z,95.78
2019-05-29T02:30:03.030Z,95.93
2019-05-29T02:31:03.008Z,95.72
2019-05-29T02:32:03.009Z,95.21
2019-05-29T02:33:02.983Z,95.72
2019-05-29T02:34:07.242Z,95.68
2019-05-29T02:35:02.989Z,95.72
2019-05-29T02:36:02.961Z,96.09
2019-05-29T02:37:02.952Z,95.98
2019-05-29T02:38:02.951Z,96.30
2019-05-29T02:39:02.933Z,96.19
2019-05-29T02:40:02.927Z,96.30
2019-05-29T02:41:02.919Z,95.98
2019-05-29T02:42:02.906Z,95.84
2019-05-29T02:43:02.880Z,95.57
2019-05-29T02:44:02.880Z,95.78
2019-05-29T02:45:02.866Z,95.64
2019-05-29T02:46:02.858Z,95.64
2019-05-29T02:47:02.868Z,95.23
2019-05-29T02:48:02.822Z,95.43
2019-05-29T02:49:02.833Z,95.12
2019-05-29T02:50:02.798Z,95.23
2019-05-29T02:51:02.801Z,95.64
2019-05-29T02:52:02.800Z,95.12
2019-05-29T02:53:02.760Z,94.61
2019-05-29T02:54:02.753Z,94.87
2019-05-29T02:55:02.740Z,94.46
2019-05-29T02:56:02.749Z,94.46
2019-05-29T02:57:02.726Z,94.71
2019-05-29T02:58:02.734Z,94.87
2019-05-29T02:59:02.725Z,94.81
2019-05-29T03:00:02.712Z,94.77
2019-05-29T03:01:02.693Z,94.77
2019-05-29T03:02:02.678Z,94.46
2019-05-29T03:03:02.656Z,94.67
2019-05-29T03:04:02.652Z,94.46
2019-05-29T03:05:02.636Z,94.67
2019-05-29T03:06:02.668Z,94.98
2019-05-29T03:07:02.641Z,94.26
2019-05-29T03:08:02.600Z,94.36
2019-05-29T03:09:02.589Z,93.95
2019-05-29T03:10:02.580Z,93.95
2019-05-29T03:11:02.606Z,94.56
2019-05-29T03:12:02.597Z,94.26
2019-05-29T03:13:02.545Z,94.21
2019-05-29T03:14:02.533Z,94.21
2019-05-29T03:15:02.521Z,94.77
2019-05-29T03:16:10.364Z,94.62
2019-05-29T03:17:03.526Z,94.62
2019-05-29T03:18:02.491Z,94.21
2019-05-29T03:19:02.490Z,94.32
2019-05-29T03:20:02.475Z,94.52
2019-05-29T03:21:02.459Z,94.42
2019-05-29T03:22:02.479Z,93.76
2019-05-29T03:23:02.447Z,93.76
2019-05-29T03:24:02.430Z,93.66
2019-05-29T03:25:02.418Z,93.45
2019-05-29T03:26:02.416Z,93.45
2019-05-29T03:27:02.421Z,93.25
2019-05-29T03:28:02.401Z,93.15
2019-05-29T03:29:02.374Z,93.04
2019-05-29T03:30:02.379Z,93.25
2019-05-29T03:31:02.441Z,93.25
2019-05-29T03:32:02.359Z,93.45
2019-05-29T03:33:02.349Z,94.27
2019-05-29T03:34:02.329Z,93.62
2019-05-29T03:35:02.307Z,93.10
2019-05-29T03:36:02.316Z,93.10
2019-05-29T03:37:02.294Z,92.59
2019-05-29T03:38:02.306Z,92.79
2019-05-29T03:39:02.262Z,92.59
2019-05-29T03:40:02.259Z,92.79
2019-05-29T03:41:02.258Z,93.00
2019-05-29T03:42:02.230Z,93.10
2019-05-29T03:43:02.241Z,92.79
2019-05-29T03:44:02.229Z,92.85
2019-05-29T03:45:02.215Z,93.10
2019-05-29T03:46:02.201Z,93.26
2019-05-29T03:47:02.214Z,92.75
2019-05-29T03:48:02.179Z,92.14
2019-05-29T03:49:02.168Z,91.31
2019-05-29T03:50:02.156Z,91.52
2019-05-29T03:51:02.134Z,91.99
2019-05-29T03:52:02.152Z,91.78
2019-05-29T03:53:02.127Z,91.52
2019-05-29T03:54:02.108Z,91.89
2019-05-29T03:55:02.123Z,91.48
2019-05-29T03:56:02.083Z,91.27
2019-05-29T03:57:02.074Z,91.38
2019-05-29T03:58:02.094Z,91.69
2019-05-29T03:59:02.057Z,91.27
2019-05-29T04:00:02.041Z,91.17
2019-05-29T04:01:02.039Z,90.86
2019-05-29T04:02:02.017Z,91.27
2019-05-29T04:03:02.035Z,91.38
2019-05-29T04:04:02.025Z,90.52
2019-05-29T04:05:02.122Z,90.82
2019-05-29T04:06:01.987Z,90.92
2019-05-29T04:07:01.962Z,90.72
2019-05-29T04:08:01.960Z,91.03
2019-05-29T04:09:01.955Z,90.21
2019-05-29T04:10:01.984Z,90.72
2019-05-29T04:11:01.932Z,91.23
2019-05-29T04:12:01.923Z,90.52
2019-05-29T04:13:01.900Z,90.58
2019-05-29T04:14:01.914Z,90.37
2019-05-29T04:15:01.892Z,90.41
2019-05-29T04:16:01.876Z,89.70
2019-05-29T04:17:01.878Z,91.09
2019-05-29T04:18:01.842Z,89.70
2019-05-29T04:19:01.867Z,89.76
2019-05-29T04:20:01.818Z,89.56
2019-05-29T04:21:01.816Z,90.47
2019-05-29T04:22:01.817Z,90.27
2019-05-29T04:23:01.791Z,89.86
2019-05-29T04:24:01.816Z,90.06
2019-05-29T04:25:01.770Z,89.65
2019-05-29T04:26:01.772Z,89.97
2019-05-29T04:27:01.739Z,89.56
2019-05-29T04:28:01.733Z,89.65
2019-05-29T04:29:01.737Z,89.56
2019-05-29T04:30:01.734Z,89.65
2019-05-29T04:31:01.710Z,90.23
2019-05-29T04:32:01.696Z,89.97
2019-05-29T04:33:01.679Z,89.72
2019-05-29T04:34:01.673Z,89.72
2019-05-29T04:35:01.681Z,89.72
2019-05-29T04:36:01.675Z,89.72
2019-05-29T04:37:01.635Z,89.11
2019-05-29T04:38:01.637Z,90.12
2019-05-29T04:39:01.619Z,89.51
2019-05-29T04:40:01.650Z,89.31
2019-05-29T04:41:01.600Z,89.31
2019-05-29T04:42:01.592Z,88.96
2019-05-29T04:43:01.581Z,89.00
2019-05-29T04:44:01.553Z,89.20
2019-05-29T04:45:01.589Z,88.96
2019-05-29T04:46:01.537Z,88.76
2019-05-29T04:47:11.014Z,88.85
2019-05-29T04:48:02.533Z,88.35
2019-05-29T04:49:01.507Z,89.06
2019-05-29T04:50:01.516Z,88.96
2019-05-29T04:51:01.474Z,88.45
2019-05-29T04:52:01.468Z,88.55
2019-05-29T04:53:01.471Z,88.51
2019-05-29T04:54:01.451Z,88.00
2019-05-29T04:55:01.465Z,88.10
2019-05-29T04:56:01.427Z,88.10
2019-05-29T04:57:01.410Z,88.00
2019-05-29T04:58:01.397Z,88.31
2019-05-29T04:59:01.390Z,87.70
2019-05-29T05:00:01.413Z,87.90
2019-05-29T05:01:01.364Z,88.10
2019-05-29T05:02:01.390Z,87.70
2019-05-29T05:03:01.358Z,87.59
2019-05-29T05:04:01.350Z,88.82
2019-05-29T05:05:01.338Z,88.51
2019-05-29T05:06:01.344Z,87.65
2019-05-29T05:07:01.309Z,87.85
2019-05-29T05:08:01.301Z,87.96
2019-05-29T05:09:01.279Z,87.24
2019-05-29T05:10:01.284Z,87.14
2019-05-29T05:11:01.283Z,86.94
2019-05-29T05:12:01.267Z,87.76
2019-05-29T05:13:01.239Z,87.35
2019-05-29T05:14:01.857Z,87.92
2019-05-29T05:15:01.215Z,86.29
2019-05-29T05:16:01.217Z,86.80
2019-05-29T05:17:01.212Z,86.90
2019-05-29T05:18:01.177Z,86.35
2019-05-29T05:19:01.170Z,86.04
2019-05-29T05:20:01.161Z,85.53
2019-05-29T05:21:01.176Z,86.15
2019-05-29T05:22:01.162Z,85.08
2019-05-29T05:23:01.127Z,84.47
2019-05-29T05:24:01.127Z,84.64
2019-05-29T05:25:01.200Z,83.48
2019-05-29T05:26:01.109Z,82.66
2019-05-29T05:27:01.083Z,82.12
2019-05-29T05:28:01.079Z,81.37
2019-05-29T05:29:01.075Z,80.65
2019-05-29T05:30:01.049Z,81.12
2019-05-29T05:31:01.045Z,78.64
2019-05-29T05:32:01.043Z,78.55
2019-05-29T05:33:01.022Z,77.70
2019-05-29T05:34:01.023Z,77.09
2019-05-29T05:35:00.995Z,77.05
2019-05-29T05:36:01.013Z,76.20
2019-05-29T05:37:00.979Z,75.29
2019-05-29T05:38:01.001Z,75.29
2019-05-29T05:39:01.005Z,75.96
2019-05-29T05:40:00.937Z,74.81
2019-05-29T05:41:00.945Z,74.00
2019-05-29T05:42:00.934Z,72.89
2019-05-29T05:43:00.917Z,72.85
2019-05-29T05:44:00.897Z,72.01
2019-05-29T05:45:00.884Z,72.31
2019-05-29T05:46:00.898Z,71.50
2019-05-29T05:47:00.858Z,70.05
2019-05-29T05:48:00.857Z,69.74
2019-05-29T05:49:00.838Z,70.45
2019-05-29T05:50:00.839Z,70.25
2019-05-29T05:51:00.822Z,70.59
2019-05-29T05:52:00.831Z,68.74
2019-05-29T05:53:00.801Z,68.00
2019-05-29T05:54:00.783Z,66.48
2019-05-29T05:55:00.782Z,66.08
2019-05-29T05:56:00.760Z,65.67
2019-05-29T05:57:00.769Z,65.34
2019-05-29T05:58:00.738Z,65.01
2019-05-29T05:59:00.736Z,64.00
2019-05-29T06:00:00.727Z,61.57
2019-05-29T06:01:00.706Z,62.76
2019-05-29T06:02:00.714Z,62.45
2019-05-29T06:03:00.692Z,62.05
2019-05-29T06:04:00.678Z,62.25
2019-05-29T06:05:00.669Z,61.95
2019-05-29T06:06:00.656Z,62.15
2019-05-29T06:07:00.658Z,62.02
2019-05-29T06:08:00.637Z,61.01
2019-05-29T06:09:00.623Z,61.11
2019-05-29T06:10:00.634Z,59.77
2019-05-29T06:11:00.600Z,59.00
2019-05-29T06:12:00.602Z,60.51
2019-05-29T06:13:00.585Z,60.21
2019-05-29T06:14:00.576Z,60.53
2019-05-29T06:15:00.574Z,61.44
2019-05-29T06:16:00.552Z,60.97
2019-05-29T06:17:00.547Z,62.18
2019-05-29T06:18:19.431Z,62.08
2019-05-29T06:19:01.513Z,62.18
2019-05-29T06:20:00.502Z,62.18
2019-05-29T06:21:00.531Z,62.18
2019-05-29T06:22:00.506Z,61.00
2019-05-29T06:23:00.474Z,63.12
2019-05-29T06:24:00.466Z,61.71
2019-05-29T06:25:00.449Z,63.93
2019-05-29T06:26:00.442Z,61.71
2019-05-29T06:27:00.453Z,61.51
2019-05-29T06:28:00.427Z,59.08
2019-05-29T06:29:00.407Z,60.09
2019-05-29T06:30:00.408Z,59.18
2019-05-29T06:31:00.405Z,59.96
2019-05-29T06:32:00.379Z,58.82
2019-05-29T06:33:00.390Z,59.00
2019-05-29T06:34:00.363Z,58.97
2019-05-29T06:35:00.348Z,58.84
2019-05-29T06:36:00.346Z,57.30
2019-05-29T06:37:00.323Z,56.27
2019-05-29T06:38:00.330Z,56.37
2019-05-29T06:39:00.304Z,56.14
2019-05-29T06:40:00.296Z,55.51
2019-05-29T06:41:00.278Z,54.80
2019-05-29T06:42:00.277Z,54.20
2019-05-29T06:43:00.276Z,54.40
2019-05-29T06:44:00.242Z,54.88
2019-05-29T06:45:00.379Z,54.08
2019-05-29T06:46:00.220Z,52.84
2019-05-29T06:47:00.210Z,52.74
2019-05-29T06:48:00.218Z,52.51
2019-05-29T06:49:01.147Z,52.51
2019-05-29T06:50:00.180Z,52.29
2019-05-29T06:51:00.181Z,52.39
2019-05-29T06:52:00.157Z,52.75
2019-05-29T06:53:00.157Z,51.32
2019-05-29T06:54:00.139Z,50.11
2019-05-29T06:55:00.160Z,49.89
2019-05-29T06:56:01.481Z,49.29
2019-05-29T06:57:00.106Z,49.89
2019-05-29T06:58:00.107Z,50.09
2019-05-29T06:59:00.081Z,49.58
2019-05-29T07:00:00.069Z,48.79
2019-05-29T07:01:00.062Z,48.99
2019-05-29T07:02:00.047Z,48.51
2019-05-29T07:03:00.086Z,47.99
2019-05-29T07:04:11.494Z,48.69
2019-05-29T07:05:01.015Z,49.49
2019-05-29T07:06:00.007Z,48.26
2019-05-29T07:06:59.992Z,48.04
2019-05-29T07:08:16.848Z,47.04
2019-05-29T07:09:00.971Z,48.52
2019-05-29T07:09:59.959Z,46.31
2019-05-29T07:10:59.949Z,45.92
2019-05-29T07:11:59.939Z,45.64
2019-05-29T07:12:59.930Z,46.51
2019-05-29T07:13:59.932Z,46.50
2019-05-29T07:14:59.906Z,46.27
2019-05-29T07:15:59.899Z,45.87
2019-05-29T07:16:59.885Z,44.95
2019-05-29T07:17:59.874Z,45.63
2019-05-29T07:20:04.128Z,44.23
2019-05-29T07:20:59.846Z,44.21
2019-05-29T07:21:59.840Z,44.51
2019-05-29T07:22:59.823Z,44.31
2019-05-29T07:23:59.840Z,44.31
2019-05-29T07:24:59.810Z,44.93
2019-05-29T07:25:59.790Z,44.41
2019-05-29T07:26:59.789Z,45.68
2019-05-29T07:27:59.770Z,44.09
2019-05-29T07:29:08.102Z,44.46
2019-05-29T07:30:00.776Z,45.17
2019-05-29T07:31:03.152Z,43.55
2019-05-29T07:31:59.733Z,42.83
2019-05-29T07:32:59.715Z,42.61
2019-05-29T07:33:59.714Z,42.49
2019-05-29T07:35:03.577Z,42.59
2019-05-29T07:35:59.682Z,42.59
2019-05-29T07:36:59.674Z,42.89
2019-05-29T07:37:59.662Z,44.28
2019-05-29T07:39:03.668Z,42.89
2019-05-29T07:39:59.652Z,42.63
2019-05-29T07:40:59.657Z,43.05
2019-05-29T07:41:59.624Z,44.67
2019-05-29T07:42:59.614Z,44.31
2019-05-29T07:43:59.597Z,45.85
2019-05-29T07:44:59.614Z,45.65
2019-05-29T07:45:59.574Z,44.78
2019-05-29T07:46:59.571Z,46.37
2019-05-29T07:47:59.570Z,45.09
2019-05-29T07:48:59.562Z,46.92
2019-05-29T07:49:59.556Z,47.14
2019-05-29T07:51:06.927Z,47.06
2019-05-29T07:52:00.515Z,47.38
2019-05-29T07:52:59.519Z,47.91
2019-05-29T07:53:59.485Z,48.43
2019-05-29T07:54:59.482Z,48.23
2019-05-29T07:55:59.481Z,48.53
2019-05-29T07:56:59.454Z,50.26
2019-05-29T07:57:59.444Z,48.38
2019-05-29T07:59:03.340Z,49.01
2019-05-29T07:59:59.427Z,49.43
2019-05-29T08:01:11.674Z,50.01
2019-05-29T08:02:00.410Z,48.60
2019-05-29T08:02:59.391Z,48.93
2019-05-29T08:03:59.383Z,49.02
2019-05-29T08:04:59.373Z,48.25
2019-05-29T08:05:59.384Z,48.97
2019-05-29T08:06:59.346Z,49.98
2019-05-29T08:07:59.341Z,50.78
2019-05-29T08:08:59.330Z,49.98
2019-05-29T08:09:59.317Z,49.85
2019-05-29T08:10:59.318Z,50.03
2019-05-29T08:11:59.319Z,50.21
2019-05-29T08:12:59.289Z,49.38
2019-05-29T08:13:59.272Z,48.25
2019-05-29T08:14:59.262Z,48.23
2019-05-29T08:16:02.992Z,46.62
2019-05-29T08:16:59.258Z,48.41
2019-05-29T08:17:59.227Z,47.11
2019-05-29T08:18:59.216Z,47.81
2019-05-29T08:20:06.592Z,47.81
2019-05-29T08:21:00.197Z,48.41
2019-05-29T08:21:59.200Z,48.89
2019-05-29T08:22:59.174Z,47.20
2019-05-29T08:23:59.160Z,47.93
2019-05-29T08:24:59.172Z,48.13
2019-05-29T08:25:59.141Z,49.84
2019-05-29T08:26:59.146Z,50.04
2019-05-29T08:27:59.112Z,50.26
2019-05-29T08:28:59.103Z,49.93
2019-05-29T08:29:59.097Z,50.16
2019-05-29T08:30:59.083Z,51.17
2019-05-29T08:31:59.097Z,50.99
2019-05-29T08:32:59.062Z,50.68
2019-05-29T08:33:59.072Z,50.48
2019-05-29T08:34:59.037Z,49.88
2019-05-29T08:36:00.370Z,51.51
2019-05-29T08:37:06.554Z,48.98
2019-05-29T08:38:00.023Z,50.09
2019-05-29T08:38:59.000Z,49.38
2019-05-29T08:39:58.983Z,47.85
2019-05-29T08:40:58.981Z,47.53
2019-05-29T08:42:21.482Z,50.46
2019-05-29T08:42:59.967Z,47.85
2019-05-29T08:43:58.946Z,47.35
2019-05-29T08:44:58.936Z,46.65
2019-05-29T08:45:58.927Z,46.57
2019-05-29T08:47:09.505Z,47.65
2019-05-29T08:47:59.932Z,46.45
2019-05-29T08:48:58.885Z,46.35
2019-05-29T08:50:16.827Z,46.15
2019-05-29T08:50:59.862Z,47.96
2019-05-29T08:52:11.003Z,47.65
2019-05-29T08:53:02.533Z,47.67
2019-05-29T08:53:58.846Z,48.48
2019-05-29T08:54:58.824Z,46.59
2019-05-29T08:55:58.820Z,47.94
2019-05-29T08:56:58.806Z,48.14
2019-05-29T08:57:58.824Z,48.47
2019-05-29T08:58:58.789Z,47.66
2019-05-29T08:59:58.780Z,48.37
2019-05-29T09:00:58.773Z,50.08
2019-05-29T09:01:58.755Z,51.16
2019-05-29T09:02:58.736Z,50.46
2019-05-29T09:03:58.741Z,47.94
2019-05-29T09:04:58.717Z,47.64
2019-05-29T09:06:08.631Z,50.43
2019-05-29T09:06:59.687Z,49.83
2019-05-29T09:07:58.681Z,47.85
2019-05-29T09:08:58.681Z,48.85
2019-05-29T09:09:58.663Z,48.83
2019-05-29T09:10:58.658Z,46.69
2019-05-29T09:11:58.646Z,48.90
2019-05-29T09:13:04.898Z,48.02
2019-05-29T09:13:59.636Z,48.85
2019-05-29T09:14:58.614Z,48.55
2019-05-29T09:15:58.595Z,48.65
2019-05-29T09:16:58.640Z,47.74
2019-05-29T09:17:58.576Z,48.52
2019-05-29T09:18:58.596Z,48.30
2019-05-29T09:19:58.561Z,48.48
2019-05-29T09:21:03.292Z,48.48
2019-05-29T09:21:59.535Z,46.25
2019-05-29T09:22:58.529Z,46.75
2019-05-29T09:23:59.155Z,46.65
2019-05-29T09:24:58.568Z,46.33
2019-05-29T09:26:13.604Z,46.70
2019-05-29T09:26:59.478Z,45.10
2019-05-29T09:27:58.466Z,45.20
2019-05-29T09:28:58.474Z,47.69
2019-05-29T09:29:58.469Z,46.18
2019-05-29T09:30:58.444Z,45.58
2019-05-29T09:31:58.434Z,45.98
2019-05-29T09:32:58.412Z,45.50
2019-05-29T09:33:58.399Z,45.60
2019-05-29T09:34:58.401Z,46.30
2019-05-29T09:35:58.378Z,46.33
2019-05-29T09:36:58.392Z,46.23
2019-05-29T09:37:58.355Z,46.25
2019-05-29T09:38:58.410Z,46.93
2019-05-29T09:39:58.352Z,45.84
2019-05-29T09:40:58.326Z,47.85
2019-05-29T09:41:58.334Z,46.77
2019-05-29T09:42:58.305Z,45.95
2019-05-29T09:44:00.236Z,45.84
2019-05-29T09:44:58.295Z,47.75
2019-05-29T09:46:02.053Z,48.16
2019-05-29T09:46:58.260Z,46.25
2019-05-29T09:47:58.263Z,46.15
2019-05-29T09:49:01.296Z,46.42
2019-05-29T09:49:58.242Z,48.03
2019-05-29T09:50:58.216Z,46.33
2019-05-29T09:51:58.204Z,46.33
2019-05-29T09:52:59.007Z,45.72
2019-05-29T09:53:59.452Z,45.53
2019-05-29T09:54:58.350Z,46.45
2019-05-29T09:55:59.075Z,46.35
2019-05-29T09:56:59.456Z,46.67
2019-05-29T09:57:58.687Z,46.97
2019-05-29T09:58:59.781Z,46.47
2019-05-29T09:59:59.818Z,46.07
2019-05-29T10:01:18.449Z,46.49
2019-05-29T10:02:00.300Z,46.80
2019-05-29T10:02:59.451Z,47.70
2019-05-29T10:04:00.035Z,48.10
2019-05-29T10:05:00.502Z,47.92
2019-05-29T10:05:59.371Z,48.93
2019-05-29T10:06:59.435Z,48.80
2019-05-29T10:07:58.528Z,47.30
2019-05-29T10:08:58.200Z,45.67
2019-05-29T10:09:59.280Z,46.25
2019-05-29T10:11:05.921Z,49.93
2019-05-29T10:12:03.275Z,47.31
2019-05-29T10:12:59.978Z,46.00
2019-05-29T10:13:58.829Z,45.22
2019-05-29T10:14:58.926Z,45.60
2019-05-29T10:15:59.119Z,46.33
2019-05-29T10:16:59.330Z,46.53
2019-05-29T10:17:58.499Z,46.03
2019-05-29T10:18:59.787Z,46.73
2019-05-29T10:19:58.975Z,47.53
2019-05-29T10:20:59.546Z,47.31
2019-05-29T10:22:00.061Z,47.74
2019-05-29T10:22:58.929Z,44.51
2019-05-29T10:23:59.420Z,43.09
2019-05-29T10:24:58.711Z,44.70
2019-05-29T10:25:58.821Z,43.70
2019-05-29T10:26:59.050Z,43.01
2019-05-29T10:27:57.817Z,42.49
2019-05-29T10:29:58.789Z,41.41
2019-05-29T10:31:02.905Z,41.38
2019-05-29T10:31:58.776Z,42.45
2019-05-29T10:32:57.759Z,41.06
2019-05-29T10:33:57.754Z,41.74
2019-05-29T10:34:38.800Z,42.46
2019-05-29T10:34:57.734Z,42.31
2019-05-29T10:35:57.740Z,40.60
2019-05-29T10:36:57.715Z,38.49
2019-05-29T10:37:57.704Z,39.89
2019-05-29T10:38:57.692Z,39.48
2019-05-29T10:39:57.706Z,38.47
2019-05-29T10:41:06.264Z,38.57
2019-05-29T10:41:58.664Z,37.94
2019-05-29T10:42:57.655Z,37.34
2019-05-29T10:43:57.640Z,36.43
2019-05-29T10:44:57.631Z,36.43
2019-05-29T10:45:57.680Z,36.43
2019-05-29T10:46:57.609Z,36.85
2019-05-29T10:47:57.601Z,37.36
2019-05-29T10:48:57.588Z,39.54
2019-05-29T10:49:57.582Z,38.47
2019-05-29T10:50:57.576Z,38.77
2019-05-29T10:52:11.955Z,37.98
2019-05-29T10:52:58.545Z,37.06
2019-05-29T10:53:59.118Z,36.55
2019-05-29T10:54:57.531Z,39.81
2019-05-29T10:55:57.525Z,37.30
2019-05-29T10:56:57.538Z,37.57
2019-05-29T10:57:57.487Z,36.74
2019-05-29T10:58:59.784Z,35.97
2019-05-29T10:59:57.470Z,37.19
2019-05-29T11:00:57.463Z,36.10
2019-05-29T11:01:57.456Z,35.62
2019-05-29T11:02:57.758Z,35.90
2019-05-29T11:03:57.432Z,35.17
2019-05-29T11:04:59.541Z,34.94
2019-05-29T11:05:57.409Z,34.18
2019-05-29T11:06:57.433Z,33.54
2019-05-29T11:07:57.406Z,32.11
2019-05-29T11:08:57.372Z,32.07
2019-05-29T11:09:57.364Z,31.66
2019-05-29T11:10:57.366Z,29.99
2019-05-29T11:11:57.812Z,30.43
2019-05-29T11:12:57.326Z,29.91
2019-05-29T11:13:57.352Z,30.05
2019-05-29T11:14:57.308Z,29.58
2019-05-29T11:15:57.296Z,29.00
2019-05-29T11:16:57.661Z,29.24
2019-05-29T11:17:57.442Z,29.09
2019-05-29T11:18:57.695Z,30.60
2019-05-29T11:19:58.261Z,31.24
2019-05-29T11:20:57.603Z,31.88
2019-05-29T11:22:04.577Z,32.18
2019-05-29T11:22:58.239Z,32.37
2019-05-29T11:23:58.258Z,32.87
2019-05-29T11:25:00.190Z,32.39
2019-05-29T11:25:58.265Z,33.08
2019-05-29T11:26:57.182Z,33.11
2019-05-29T11:27:58.554Z,31.90
2019-05-29T11:28:58.611Z,31.00
2019-05-29T11:29:57.215Z,30.85
2019-05-29T11:30:57.284Z,30.12
2019-05-29T11:31:57.135Z,28.67
2019-05-29T11:32:59.203Z,29.37
2019-05-29T11:33:57.289Z,30.32
2019-05-29T11:34:57.518Z,28.36
2019-05-29T11:36:09.484Z,29.05
2019-05-29T11:36:58.360Z,30.07
2019-05-29T11:37:57.065Z,30.21
2019-05-29T11:39:01.386Z,30.82
2019-05-29T11:39:59.015Z,32.03
2019-05-29T11:41:20.234Z,31.78
2019-05-29T11:41:58.936Z,32.21
2019-05-29T11:42:57.032Z,32.26
2019-05-29T11:43:57.031Z,32.14
2019-05-29T11:44:57.012Z,33.65
2019-05-29T11:45:57.390Z,30.58
2019-05-29T11:46:58.185Z,29.66
2019-05-29T11:47:59.154Z,28.85
2019-05-29T11:48:57.378Z,28.54
2019-05-29T11:50:07.369Z,27.73
2019-05-29T11:50:58.262Z,26.82
2019-05-29T11:52:18.789Z,27.37
2019-05-29T11:52:58.537Z,27.06
2019-05-29T11:53:57.522Z,25.27
2019-05-29T11:54:59.971Z,26.13
2019-05-29T11:55:58.030Z,26.69
2019-05-29T11:56:57.347Z,26.19
2019-05-29T11:57:57.955Z,25.90
2019-05-29T11:58:57.124Z,25.01
2019-05-29T12:00:00.195Z,24.40
2019-05-29T12:00:57.829Z,24.50
2019-05-29T12:01:57.303Z,23.32
2019-05-29T12:02:57.757Z,23.42
2019-05-29T12:04:20.557Z,23.02
2019-05-29T12:05:01.152Z,21.85
2019-05-29T12:05:57.819Z,22.33
2019-05-29T12:06:57.550Z,21.93
2019-05-29T12:07:57.550Z,22.12
2019-05-29T12:08:57.971Z,23.18
2019-05-29T12:09:57.500Z,22.57
2019-05-29T12:10:57.364Z,22.96
2019-05-29T12:11:57.970Z,22.68
2019-05-29T12:12:57.582Z,22.02
2019-05-29T12:13:58.045Z,23.37
2019-05-29T12:15:06.015Z,22.00
2019-05-29T12:15:57.787Z,24.69
2019-05-29T12:16:58.021Z,22.28
2019-05-29T12:18:18.236Z,22.28
2019-05-29T12:18:57.862Z,23.82
2019-05-29T12:19:59.381Z,23.33
2019-05-29T12:20:58.280Z,20.92
2019-05-29T12:21:56.625Z,21.78
2019-05-29T12:23:19.809Z,21.39
2019-05-29T12:23:58.181Z,21.94
2019-05-29T12:24:56.641Z,21.37
2019-05-29T12:26:16.666Z,21.38
2019-05-29T12:26:58.553Z,21.96
2019-05-29T12:27:57.366Z,22.65
2019-05-29T12:29:03.870Z,22.26
2019-05-29T12:29:58.732Z,21.37
2019-05-29T12:30:56.980Z,21.66
2019-05-29T12:31:57.083Z,24.16
2019-05-29T12:32:56.864Z,20.96
2019-05-29T12:34:00.170Z,21.72
2019-05-29T12:34:59.374Z,20.18
2019-05-29T12:35:56.992Z,19.90
2019-05-29T12:36:57.346Z,20.84
2019-05-29T12:37:57.342Z,20.35
2019-05-29T12:38:57.831Z,21.06
2019-05-29T12:39:57.477Z,21.54
2019-05-29T12:40:57.622Z,20.77
2019-05-29T12:41:57.572Z,20.66
2019-05-29T12:42:57.525Z,19.79
2019-05-29T12:43:57.515Z,21.08
2019-05-29T12:44:57.542Z,21.01
2019-05-29T12:45:57.706Z,20.83
2019-05-29T12:46:57.692Z,23.08
2019-05-29T12:47:58.057Z,24.91
2019-05-29T12:48:57.539Z,23.07
2019-05-29T12:49:57.542Z,22.33
2019-05-29T12:50:58.072Z,23.11
2019-05-29T12:51:57.526Z,22.25
2019-05-29T12:52:57.570Z,22.52